Time;durP1;ratioP1;P1;durP2;ratioP2;P2;SDS_P1;SDS_P2;PMS_P1;PMS_P2;Temp;Humidity;BMP_temperature;BMP_pressure;BME280_temperature;BME280_humidity;BME280_pressure;Samples;Min_cycle;Max_cycle;Signal;HPM_P1;HPM_P2
2021/07/06 00:00:19;;;;;;;3.05;2.75;;;;;;;21.38;63.45;99723.53;4900266;29;20112;-87
2021/07/06 00:02:49;;;;;;;3.42;2.97;;;;;;;21.39;63.47;99727.84;4900483;29;20064;-86
2021/07/06 00:05:18;;;;;;;4.18;3.05;;;;;;;21.40;63.07;99722.38;4900601;29;20131;-87
2021/07/06 00:07:46;;;;;;;6.80;3.22;;;;;;;21.48;63.24;99721.59;4900732;29;20044;-86
2021/07/06 00:10:15;;;;;;;4.28;2.60;;;;;;;21.34;63.99;99728.31;4900143;29;20495;-86
2021/07/06 00:12:43;;;;;;;3.92;2.70;;;;;;;21.37;63.94;99721.88;4900207;29;20048;-87
2021/07/06 00:15:13;;;;;;;4.65;2.88;;;;;;;21.35;64.04;99732.63;4899888;29;20064;-86
2021/07/06 00:17:41;;;;;;;4.35;2.95;;;;;;;21.32;64.08;99732.13;4899974;29;20049;-87
2021/07/06 00:20:12;;;;;;;4.18;2.90;;;;;;;21.51;63.35;99726.56;4899739;29;20048;-87
2021/07/06 00:22:39;;;;;;;3.47;3.17;;;;;;;21.43;63.82;99723.91;4900257;29;20064;-87
2021/07/06 00:25:07;;;;;;;3.15;2.92;;;;;;;21.26;64.42;99722.13;4900070;29;20403;-87
2021/07/06 00:27:34;;;;;;;3.13;2.85;;;;;;;21.25;64.74;99731.88;4900104;29;20520;-86
2021/07/06 00:30:03;;;;;;;6.07;3.15;;;;;;;21.19;64.99;99729.84;4899954;29;20052;-87
2021/07/06 00:32:30;;;;;;;3.45;3.15;;;;;;;21.09;65.53;99724.69;4900084;29;20136;-88
2021/07/06 00:34:57;;;;;;;4.50;3.83;;;;;;;21.02;65.91;99726.28;4899068;29;20097;-87
2021/07/06 00:37:24;;;;;;;4.97;3.00;;;;;;;21.17;65.21;99723.91;4899536;29;20059;-87
2021/07/06 00:39:51;;;;;;;3.65;3.35;;;;;;;21.16;65.02;99724.88;4899977;29;20091;-87
2021/07/06 00:42:18;;;;;;;3.30;3.00;;;;;;;21.19;64.88;99729.84;4899391;29;20135;-87
2021/07/06 00:44:46;;;;;;;5.28;3.15;;;;;;;21.17;64.94;99731.84;4899990;29;20051;-87
2021/07/06 00:47:13;;;;;;;2.80;2.58;;;;;;;21.18;64.65;99736.16;4899717;29;20055;-86
2021/07/06 00:49:40;;;;;;;3.83;3.42;;;;;;;21.19;64.66;99735.16;4899812;29;20404;-86
2021/07/06 00:52:07;;;;;;;8.63;4.43;;;;;;;21.23;64.42;99730.38;4899411;29;20053;-87
2021/07/06 00:54:34;;;;;;;6.80;3.08;;;;;;;21.07;65.20;99731.13;4899584;29;20125;-87
2021/07/06 00:57:01;;;;;;;3.85;3.53;;;;;;;21.19;64.57;99727.22;4899643;29;20049;-87
2021/07/06 00:59:28;;;;;;;3.17;2.95;;;;;;;21.21;64.54;99727.91;4899530;29;20100;-87
2021/07/06 01:01:55;;;;;;;5.45;3.33;;;;;;;21.22;64.38;99747.28;4899226;29;20129;-87
2021/07/06 01:04:22;;;;;;;3.22;3.00;;;;;;;21.19;64.56;99737.81;4899261;29;20053;-89
2021/07/06 01:06:49;;;;;;;4.15;3.05;;;;;;;21.24;64.40;99734.69;4899522;29;20053;-86
2021/07/06 01:09:16;;;;;;;3.55;3.20;;;;;;;21.14;64.62;99740.09;4897972;29;20057;-86
2021/07/06 01:11:43;;;;;;;4.90;3.00;;;;;;;21.19;64.39;99743.13;4899251;29;20044;-85
2021/07/06 01:14:10;;;;;;;3.58;3.28;;;;;;;21.17;64.59;99745.09;4899023;29;20124;-86
2021/07/06 01:16:37;;;;;;;3.47;3.17;;;;;;;21.13;64.54;99741.91;4898900;29;20052;-87
2021/07/06 01:19:05;;;;;;;6.32;3.15;;;;;;;21.08;64.86;99740.72;4898696;29;20048;-86
2021/07/06 01:21:31;;;;;;;5.18;3.53;;;;;;;20.98;65.18;99740.81;4899159;29;20045;-86
2021/07/06 01:23:58;;;;;;;3.53;3.13;;;;;;;20.91;65.50;99737.97;4898817;29;20087;-87
2021/07/06 01:26:25;;;;;;;3.92;3.55;;;;;;;21.03;65.16;99735.06;4899160;29;20550;-87
2021/07/06 01:28:54;;;;;;;7.38;3.45;;;;;;;20.96;64.95;99740.16;4898977;29;20128;-86
2021/07/06 01:31:21;;;;;;;3.47;3.10;;;;;;;21.07;64.65;99739.06;4898867;29;20120;-86
2021/07/06 01:33:48;;;;;;;4.20;3.40;;;;;;;21.05;64.62;99730.47;4898924;29;20133;-86
2021/07/06 01:36:17;;;;;;;4.95;3.20;;;;;;;21.14;64.40;99734.81;4898237;29;20049;-86
2021/07/06 01:38:44;;;;;;;3.75;3.38;;;;;;;21.09;64.62;99735.28;4898575;29;20063;-86
2021/07/06 01:41:12;;;;;;;3.55;3.25;;;;;;;21.06;64.83;99734.75;4898314;29;20040;-86
2021/07/06 01:43:40;;;;;;;3.67;3.35;;;;;;;21.18;64.58;99729.03;4898596;29;20041;-87
2021/07/06 01:46:07;;;;;;;3.65;3.20;;;;;;;21.32;63.68;99732.97;4897198;29;20139;-87
2021/07/06 01:48:34;;;;;;;4.20;3.55;;;;;;;21.22;63.92;99721.59;4898523;29;20045;-86
2021/07/06 01:51:01;;;;;;;5.63;3.83;;;;;;;21.13;64.28;99727.84;4898395;29;20499;-86
2021/07/06 01:53:28;;;;;;;4.40;3.50;;;;;;;21.19;64.23;99719.25;4898615;29;20081;-88
2021/07/06 01:55:55;;;;;;;5.40;3.25;;;;;;;21.11;64.13;99725.34;4898476;29;20467;-88
2021/07/06 01:58:26;;;;;;;8.23;3.28;;;;;;;21.00;64.55;99727.44;4898395;29;20048;-87
2021/07/06 02:00:59;;;;;;;7.93;3.58;;;;;;;20.96;64.59;99728.75;4898574;29;20411;-87
2021/07/06 02:03:26;;;;;;;5.78;3.70;;;;;;;20.81;65.22;99741.72;4898036;29;20052;-87
2021/07/06 02:05:58;;;;;;;6.15;3.17;;;;;;;20.78;65.75;99745.50;4898680;29;20045;-88
2021/07/06 02:08:29;;;;;;;5.20;2.92;;;;;;;20.94;65.63;99744.81;4898283;29;20057;-88
2021/07/06 02:10:59;;;;;;;7.63;4.13;;;;;;;20.83;65.66;99737.09;4898117;29;20116;-89
2021/07/06 02:13:26;;;;;;;3.67;3.38;;;;;;;20.63;66.44;99734.63;4898169;29;20052;-87
2021/07/06 02:15:55;;;;;;;4.43;3.83;;;;;;;20.50;67.06;99736.00;4897956;29;20036;-88
2021/07/06 02:18:23;;;;;;;4.80;3.75;;;;;;;20.39;67.72;99737.03;4898290;29;20048;-89
2021/07/06 02:20:53;;;;;;;4.55;3.42;;;;;;;20.28;68.09;99732.81;4898145;29;20103;-89
2021/07/06 02:23:22;;;;;;;6.53;4.28;;;;;;;20.32;68.03;99726.22;4896537;29;20069;-90
2021/07/06 02:25:52;;;;;;;4.28;3.53;;;;;;;20.36;67.75;99727.59;4897990;29;20127;-89
2021/07/06 02:28:19;;;;;;;3.97;3.03;;;;;;;20.36;67.94;99735.53;4897872;29;20196;-89
2021/07/06 02:30:48;;;;;;;3.65;3.08;;;;;;;20.27;68.36;99732.97;4896960;29;20092;-87
2021/07/06 02:33:16;;;;;;;12.70;3.72;;;;;;;20.22;68.59;99729.94;4896895;29;20530;-87
2021/07/06 02:35:43;;;;;;;7.25;3.05;;;;;;;20.23;68.66;99728.94;4897979;29;20587;-86
2021/07/06 02:38:12;;;;;;;4.10;3.08;;;;;;;20.24;68.96;99736.75;4897787;29;20167;-86
2021/07/06 02:40:40;;;;;;;4.47;4.03;;;;;;;20.11;69.15;99738.94;4897800;29;20076;-90
2021/07/06 02:43:07;;;;;;;8.63;4.45;;;;;;;20.09;69.24;99739.09;4897906;29;20037;-88
2021/07/06 02:45:34;;;;;;;9.00;5.70;;;;;;;20.07;69.38;99740.19;4896599;29;20135;-86
2021/07/06 02:48:01;;;;;;;5.95;4.95;;;;;;;20.05;69.55;99742.19;4898110;29;20403;-86
2021/07/06 02:50:28;;;;;;;8.23;4.65;;;;;;;20.15;69.52;99750.88;4897348;29;20123;-83
2021/07/06 02:52:55;;;;;;;6.32;4.13;;;;;;;20.15;69.28;99748.25;4896417;29;20122;-83
2021/07/06 02:55:22;;;;;;;3.95;2.92;;;;;;;19.99;69.60;99748.91;4897126;29;20045;-84
2021/07/06 02:57:52;;;;;;;3.90;3.10;;;;;;;19.89;69.84;99743.66;4897531;29;20053;-86
2021/07/06 03:00:28;;;;;;;5.70;3.55;;;;;;;19.89;70.04;99742.84;4897500;29;20483;-86
2021/07/06 03:03:00;;;;;;;5.03;3.13;;;;;;;19.89;70.16;99753.41;4897459;29;20045;-86
2021/07/06 03:05:30;;;;;;;3.55;3.22;;;;;;;19.83;70.71;99759.31;4897348;29;20131;-84
2021/07/06 03:07:58;;;;;;;6.68;3.72;;;;;;;19.85;70.78;99760.81;4897060;29;20124;-85
2021/07/06 03:10:34;;;;;;;8.75;3.50;;;;;;;19.96;69.93;99764.22;4897425;29;20395;-84
2021/07/06 03:13:01;;;;;;;4.88;3.60;;;;;;;19.92;70.13;99762.84;4897403;29;20049;-86
2021/07/06 03:15:31;;;;;;;8.60;3.55;;;;;;;19.81;70.29;99767.34;4897241;29;20136;-86
2021/07/06 03:17:59;;;;;;;3.83;3.53;;;;;;;19.83;70.10;99770.72;4878457;29;20098;-86
2021/07/06 03:20:27;;;;;;;5.32;3.63;;;;;;;19.71;70.65;99766.59;4897322;29;20456;-84
2021/07/06 03:22:58;;;;;;;3.30;3.00;;;;;;;19.74;70.69;99763.66;4900506;29;20055;-84
2021/07/06 03:25:26;;;;;;;3.70;3.40;;;;;;;19.70;70.77;99769.38;4900920;29;20108;-85
2021/07/06 03:27:54;;;;;;;4.32;3.42;;;;;;;19.64;71.05;99770.78;4900765;29;20127;-85
2021/07/06 03:30:27;;;;;;;4.22;3.83;;;;;;;19.65;70.70;99767.16;4901178;29;20087;-86
2021/07/06 03:32:56;;;;;;;7.30;4.03;;;;;;;19.64;70.78;99765.50;4900738;29;20128;-84
2021/07/06 03:35:27;;;;;;;4.05;3.40;;;;;;;19.59;71.27;99760.66;4901087;29;20049;-84
2021/07/06 03:37:55;;;;;;;4.65;3.25;;;;;;;19.60;70.96;99769.41;4901065;29;20040;-84
2021/07/06 03:40:23;;;;;;;5.18;3.63;;;;;;;19.50;71.56;99763.34;4901040;29;20530;-84
2021/07/06 03:42:51;;;;;;;5.70;3.80;;;;;;;19.56;71.00;99768.03;4901225;29;20130;-84
2021/07/06 03:45:21;;;;;;;4.10;3.70;;;;;;;19.63;70.98;99769.13;4900540;29;20048;-85
2021/07/06 03:47:49;;;;;;;4.07;3.78;;;;;;;19.57;71.19;99769.69;4901151;29;20053;-84
2021/07/06 03:50:20;;;;;;;6.38;3.63;;;;;;;19.56;70.80;99768.03;4900618;29;20460;-84
2021/07/06 03:52:48;;;;;;;4.25;3.85;;;;;;;19.48;70.88;99770.56;4900846;29;20048;-84
2021/07/06 03:55:16;;;;;;;10.95;5.40;;;;;;;19.66;69.71;99770.66;4900348;29;20128;-84
2021/07/06 03:57:44;;;;;;;4.95;3.85;;;;;;;20.10;68.36;99767.19;4900818;29;20040;-85
2021/07/06 04:00:14;;;;;;;6.85;4.82;;;;;;;20.11;67.98;99768.03;4899176;29;20072;-85
2021/07/06 04:02:41;;;;;;;9.45;3.65;;;;;;;20.14;68.12;99770.41;4882092;29;20052;-85
2021/07/06 04:05:11;;;;;;;5.78;3.70;;;;;;;20.30;67.88;99772.38;4881857;29;20430;-85
2021/07/06 04:07:41;;;;;;;5.22;3.30;;;;;;;20.64;66.25;99775.19;4882183;29;20132;-84
2021/07/06 04:10:11;;;;;;;6.35;3.95;;;;;;;21.90;62.02;99779.94;4882066;29;20049;-83
2021/07/06 04:12:39;;;;;;;4.80;3.72;;;;;;;22.27;59.88;99773.44;4881452;29;20049;-83
2021/07/06 04:15:07;;;;;;;5.10;3.45;;;;;;;21.34;63.35;99783.16;4898959;29;20051;-85
2021/07/06 04:17:34;;;;;;;5.05;4.00;;;;;;;20.94;65.05;99787.19;4900100;29;20100;-85
2021/07/06 04:20:04;;;;;;;5.25;3.30;;;;;;;20.66;66.34;99789.09;4900425;29;20047;-85
2021/07/06 04:22:31;;;;;;;5.75;3.00;;;;;;;21.21;64.24;99786.22;4899884;29;20045;-85
2021/07/06 04:24:59;;;;;;;6.43;3.63;;;;;;;23.17;57.88;99776.97;4900299;29;20045;-84
2021/07/06 04:27:26;;;;;;;10.35;4.07;;;;;;;24.69;52.55;99781.06;4900168;29;20080;-86
2021/07/06 04:29:54;;;;;;;8.55;3.42;;;;;;;25.00;51.53;99787.13;4900196;29;20127;-86
2021/07/06 04:32:21;;;;;;;3.55;3.25;;;;;;;25.91;49.70;99784.34;4900081;29;20104;-86
2021/07/06 04:34:50;;;;;;;5.85;3.53;;;;;;;26.11;49.08;99783.56;4899438;29;20391;-84
2021/07/06 04:37:17;;;;;;;7.85;3.58;;;;;;;27.07;46.38;99784.09;4899771;29;20093;-84
2021/07/06 04:39:44;;;;;;;6.40;3.65;;;;;;;27.34;45.36;99779.75;4899806;29;20115;-85
2021/07/06 04:42:13;;;;;;;6.88;3.17;;;;;;;27.91;44.36;99784.00;4898708;29;20124;-85
2021/07/06 04:44:40;;;;;;;2.97;2.78;;;;;;;27.34;46.01;99779.75;4900077;29;20380;-86
2021/07/06 04:47:07;;;;;;;3.90;2.78;;;;;;;27.27;45.76;99794.09;4900149;29;20071;-85
2021/07/06 04:49:34;;;;;;;7.93;3.10;;;;;;;27.41;45.61;99782.47;4899412;29;20341;-85
2021/07/06 04:52:06;;;;;;;3.22;3.00;;;;;;;28.03;45.52;99794.13;4899925;29;20120;-86
2021/07/06 04:54:33;;;;;;;3.80;2.67;;;;;;;28.71;43.02;99806.47;4898243;29;20049;-86
2021/07/06 04:57:00;;;;;;;7.85;2.58;;;;;;;29.88;40.26;99821.03;4899884;29;20072;-85
2021/07/06 04:59:26;;;;;;;7.40;2.85;;;;;;;31.33;37.20;99823.84;4899171;29;20104;-85
2021/07/06 05:01:53;;;;;;;6.63;3.28;;;;;;;30.32;37.93;99829.31;4899559;29;20063;-87
2021/07/06 05:04:21;;;;;;;4.45;2.92;;;;;;;29.79;38.66;99838.41;4897879;29;20073;-87
2021/07/06 05:06:48;;;;;;;5.47;2.70;;;;;;;29.32;40.17;99836.81;4899511;29;20055;-87
2021/07/06 05:09:15;;;;;;;3.65;3.05;;;;;;;29.61;39.68;99828.31;4899562;29;20053;-87
2021/07/06 05:11:42;;;;;;;5.60;2.85;;;;;;;29.12;40.88;99832.28;4899682;29;20373;-89
2021/07/06 05:14:44;;;;;;;4.00;3.05;;;;;;;28.56;40.98;99826.47;4905757;29;20075;-96
2021/07/06 05:17:11;;;;;;;11.60;3.38;;;;;;;29.74;38.54;99820.22;4896318;29;20140;-92
2021/07/06 05:19:38;;;;;;;3.65;3.30;;;;;;;29.82;38.30;99821.03;4898086;29;20048;-88
2021/07/06 05:22:05;;;;;;;5.57;3.53;;;;;;;29.02;39.79;99823.81;4894650;29;20474;-87
2021/07/06 05:24:32;;;;;;;3.40;3.10;;;;;;;29.79;38.61;99821.47;4895315;29;20586;-86
2021/07/06 05:26:59;;;;;;;8.63;4.50;;;;;;;30.01;37.80;99814.75;4891181;29;20048;-88
2021/07/06 05:29:26;;;;;;;7.50;4.00;;;;;;;30.38;36.76;99812.31;4896717;29;20096;-87
2021/07/06 05:31:53;;;;;;;5.45;3.80;;;;;;;31.20;35.29;99819.34;4897996;29;20581;-88
2021/07/06 05:34:20;;;;;;;6.53;3.75;;;;;;;30.52;36.47;99813.88;4896225;29;20048;-88
2021/07/06 05:36:48;;;;;;;4.68;3.50;;;;;;;31.10;35.39;99827.09;4897886;29;20040;-90
2021/07/06 05:39:16;;;;;;;3.67;3.38;;;;;;;30.04;37.45;99825.06;4898830;29;20052;-90
2021/07/06 05:41:43;;;;;;;11.25;3.50;;;;;;;29.87;37.08;99815.84;4897119;29;20571;-85
2021/07/06 05:44:11;;;;;;;7.43;3.50;;;;;;;30.80;36.41;99818.06;4894885;29;20043;-87
2021/07/06 05:46:38;;;;;;;4.00;3.10;;;;;;;31.48;35.37;99818.94;4896718;29;20096;-88
2021/07/06 05:49:05;;;;;;;3.92;2.90;;;;;;;32.49;33.00;99819.34;4896208;29;20441;-87
2021/07/06 05:51:32;;;;;;;5.65;3.00;;;;;;;31.37;35.60;99818.81;4894786;29;20044;-88
2021/07/06 05:53:59;;;;;;;3.40;3.10;;;;;;;30.58;36.93;99823.78;4895121;29;20080;-92
2021/07/06 05:56:26;;;;;;;3.08;2.78;;;;;;;31.72;34.54;99819.88;4896029;29;20060;-87
2021/07/06 05:58:53;;;;;;;7.97;3.45;;;;;;;31.99;34.17;99820.41;4894193;29;20071;-86
2021/07/06 06:01:20;;;;;;;6.07;2.88;;;;;;;32.32;33.63;99813.75;4895750;29;20080;-93
2021/07/06 06:03:47;;;;;;;3.47;3.05;;;;;;;31.72;34.62;99817.19;4894375;29;20041;-87
2021/07/06 06:06:14;;;;;;;3.55;2.88;;;;;;;31.66;34.71;99818.09;4894612;29;20055;-86
2021/07/06 06:08:44;;;;;;;6.00;3.10;;;;;;;32.73;32.59;99812.97;4890894;29;20514;-84
2021/07/06 06:11:17;;;;;;;6.43;2.50;;;;;;;34.80;29.90;99816.81;4892393;29;20590;-92
2021/07/06 06:13:45;;;;;;;5.45;3.10;;;;;;;32.16;33.95;99817.91;4891713;29;20072;-88
2021/07/06 06:16:12;;;;;;;3.58;3.03;;;;;;;32.98;32.47;99820.91;4893999;29;20112;-93
2021/07/06 06:18:39;;;;;;;8.40;3.92;;;;;;;31.29;35.35;99817.25;4894561;29;20440;-87
2021/07/06 06:21:06;;;;;;;32.28;5.10;;;;;;;33.72;32.04;99821.25;4894261;29;20048;-88
2021/07/06 06:23:33;;;;;;;6.68;4.35;;;;;;;29.97;37.76;99814.34;4893765;29;20045;-86
2021/07/06 06:26:00;;;;;;;8.27;3.72;;;;;;;28.04;42.48;99825.25;4895952;29;20131;-86
2021/07/06 06:28:27;;;;;;;6.68;3.83;;;;;;;27.14;45.32;99822.44;4892881;29;20881;-87
2021/07/06 06:30:56;;;;;;;4.90;4.40;;;;;;;26.53;46.86;99823.94;4894482;29;20143;-88
2021/07/06 06:33:23;;;;;;;6.68;4.00;;;;;;;25.53;49.59;99827.97;4902386;29;20045;-88
2021/07/06 06:35:50;;;;;;;12.68;5.45;;;;;;;25.66;49.54;99815.81;4895580;29;20492;-85
2021/07/06 06:38:17;;;;;;;7.93;4.60;;;;;;;26.49;47.83;99815.44;4887702;29;20128;-86
2021/07/06 06:40:45;;;;;;;11.35;4.95;;;;;;;25.74;49.60;99823.75;4895300;29;20116;-85
2021/07/06 06:43:11;;;;;;;10.90;4.38;;;;;;;25.54;49.64;99829.63;4895593;29;20551;-85
2021/07/06 06:45:38;;;;;;;7.22;4.40;;;;;;;25.79;49.30;99819.53;4895383;29;20044;-85
2021/07/06 06:48:05;;;;;;;6.82;4.15;;;;;;;26.10;48.32;99821.16;4896418;29;20432;-84
2021/07/06 06:50:32;;;;;;;8.70;4.07;;;;;;;25.94;48.44;99819.53;4896964;29;20079;-85
2021/07/06 06:52:59;;;;;;;4.82;4.20;;;;;;;25.29;49.84;99830.88;4896388;29;20504;-86
2021/07/06 06:55:26;;;;;;;7.88;5.03;;;;;;;25.36;50.26;99829.16;4893893;29;20462;-86
2021/07/06 06:57:53;;;;;;;8.40;4.38;;;;;;;25.32;49.90;99843.88;4895871;29;20049;-86
2021/07/06 07:00:20;;;;;;;6.93;4.45;;;;;;;25.01;50.36;99839.44;4896930;29;20131;-85
2021/07/06 07:02:50;;;;;;;5.88;3.45;;;;;;;25.19;50.23;99835.66;4897951;29;20040;-86
2021/07/06 07:05:17;;;;;;;8.75;3.90;;;;;;;25.57;49.36;99823.94;4896469;29;20131;-85
2021/07/06 07:07:45;;;;;;;5.70;3.47;;;;;;;25.33;49.34;99833.00;4897858;29;20055;-85
2021/07/06 07:10:13;;;;;;;4.85;3.72;;;;;;;25.15;49.27;99837.03;4892872;29;20041;-85
2021/07/06 07:12:41;;;;;;;5.80;3.00;;;;;;;26.01;47.21;99815.09;4896536;29;20068;-84
2021/07/06 07:15:11;;;;;;;8.07;3.10;;;;;;;26.67;45.69;99814.16;4894057;29;20052;-85
2021/07/06 07:17:38;;;;;;;5.47;2.92;;;;;;;26.51;46.15;99812.56;4891028;29;20515;-84
2021/07/06 07:20:06;;;;;;;6.43;3.83;;;;;;;26.18;46.90;99809.53;4892610;29;20047;-85
2021/07/06 07:22:33;;;;;;;6.47;3.08;;;;;;;26.33;46.35;99815.66;4891964;29;20053;-84
2021/07/06 07:25:00;;;;;;;3.78;3.28;;;;;;;25.82;47.72;99818.31;4893672;29;20052;-84
2021/07/06 07:27:27;;;;;;;9.02;4.45;;;;;;;25.98;47.89;99810.09;4893576;29;20472;-84
2021/07/06 07:29:57;;;;;;;8.43;4.50;;;;;;;25.95;48.60;99807.84;4895236;29;20380;-85
2021/07/06 07:32:24;;;;;;;5.22;4.32;;;;;;;25.73;48.32;99808.75;4895679;29;20432;-83
2021/07/06 07:34:51;;;;;;;12.57;5.88;;;;;;;25.66;48.81;99807.81;4891413;29;20056;-83
2021/07/06 07:37:20;;;;;;;9.45;5.05;;;;;;;25.99;49.43;99808.25;4884460;29;20041;-83
2021/07/06 07:39:46;;;;;;;9.43;6.07;;;;;;;25.64;50.31;99808.00;4889036;29;20051;-85
2021/07/06 07:42:15;;;;;;;8.98;5.75;;;;;;;25.46;50.91;99821.72;4903036;29;20051;-85
2021/07/06 07:44:44;;;;;;;9.15;6.13;;;;;;;25.16;50.90;99830.69;4901536;29;20136;-89
2021/07/06 07:47:11;;;;;;;7.00;6.18;;;;;;;25.33;51.19;99816.19;4895643;29;20428;-87
2021/07/06 07:49:38;;;;;;;8.88;5.45;;;;;;;25.39;51.04;99820.78;4894864;29;20492;-90
2021/07/06 07:52:07;;;;;;;9.93;6.13;;;;;;;25.59;50.65;99819.22;4896108;29;20048;-84
2021/07/06 07:54:34;;;;;;;11.88;5.45;;;;;;;25.53;50.45;99822.66;4894371;29;20058;-89
2021/07/06 07:57:02;;;;;;;7.18;5.85;;;;;;;25.52;50.50;99821.00;4893846;29;20245;-89
2021/07/06 07:59:30;;;;;;;8.75;6.43;;;;;;;25.13;51.70;99836.38;4890515;29;20056;-86
2021/07/06 08:01:57;;;;;;;12.15;6.63;;;;;;;25.52;50.79;99823.66;4895759;29;20091;-85
2021/07/06 08:04:24;;;;;;;9.48;7.25;;;;;;;25.47;51.70;99817.22;4906713;29;20127;-86
2021/07/06 08:06:51;;;;;;;7.90;7.10;;;;;;;25.15;52.33;99829.03;4892349;29;20068;-85
2021/07/06 08:09:18;;;;;;;16.02;6.30;;;;;;;25.21;52.43;99828.31;4891753;29;20128;-85
2021/07/06 08:11:45;;;;;;;7.72;6.80;;;;;;;24.98;53.24;99829.16;4896162;29;20179;-83
2021/07/06 08:14:12;;;;;;;13.27;7.43;;;;;;;25.32;53.03;99830.53;4900068;29;20040;-84
2021/07/06 08:16:39;;;;;;;8.75;6.53;;;;;;;25.60;52.87;99823.56;4908499;29;20056;-86
2021/07/06 08:19:06;;;;;;;13.48;7.28;;;;;;;25.78;52.36;99825.91;4903263;29;20132;-85
2021/07/06 08:21:35;;;;;;;9.65;8.30;;;;;;;25.28;53.79;99834.56;4894230;29;20037;-84
2021/07/06 08:24:02;;;;;;;12.52;8.13;;;;;;;25.43;53.56;99834.59;4903889;29;20076;-83
2021/07/06 08:26:31;;;;;;;11.52;7.85;;;;;;;25.34;53.56;99824.00;4905169;29;20083;-84
2021/07/06 08:28:58;;;;;;;12.20;9.57;;;;;;;25.20;53.90;99832.00;4905056;29;20055;-84
2021/07/06 08:31:25;;;;;;;9.82;8.30;;;;;;;25.59;52.77;99834.41;4896354;29;20124;-84
2021/07/06 08:33:52;;;;;;;14.85;8.45;;;;;;;25.48;53.03;99830.38;4899137;29;20059;-85
2021/07/06 08:36:19;;;;;;;8.57;7.78;;;;;;;25.54;52.57;99834.97;4901246;29;20071;-84
2021/07/06 08:38:46;;;;;;;10.88;8.13;;;;;;;25.82;52.70;99832.50;4899687;29;20045;-86
2021/07/06 08:41:13;;;;;;;11.13;9.52;;;;;;;25.63;53.02;99834.88;4899673;29;20054;-86
2021/07/06 08:43:40;;;;;;;14.57;8.85;;;;;;;25.60;53.10;99838.75;4903714;29;20059;-84
2021/07/06 08:46:08;;;;;;;16.02;9.60;;;;;;;25.64;52.67;99829.34;4903860;29;20441;-83
2021/07/06 08:48:35;;;;;;;10.63;8.48;;;;;;;25.67;51.45;99826.31;4905984;29;20399;-84
2021/07/06 08:51:04;;;;;;;9.98;8.18;;;;;;;25.77;51.88;99818.06;4897544;29;20077;-82
2021/07/06 08:53:32;;;;;;;10.77;7.70;;;;;;;25.96;51.55;99822.84;4901738;29;20511;-83
2021/07/06 08:55:59;;;;;;;12.10;9.23;;;;;;;25.78;52.48;99809.03;4899741;29;20063;-85
2021/07/06 08:58:27;;;;;;;11.82;8.95;;;;;;;25.79;52.37;99814.19;4896659;29;20044;-85
2021/07/06 09:00:54;;;;;;;12.30;10.85;;;;;;;25.77;52.84;99820.72;4898971;29;20104;-86
2021/07/06 09:03:21;;;;;;;13.05;10.88;;;;;;;25.75;52.99;99812.09;4896742;29;20407;-84
2021/07/06 09:06:03;;;;;;;12.98;9.25;;;;;;;25.83;52.72;99811.97;4898702;29;20075;-86
2021/07/06 09:08:30;;;;;;;11.35;10.25;;;;;;;25.95;52.44;99809.69;4905156;29;20058;-87
2021/07/06 09:10:57;;;;;;;11.73;9.55;;;;;;;26.20;52.49;99808.31;4898338;29;20040;-87
2021/07/06 09:13:32;;;;;;;13.90;10.60;;;;;;;26.12;52.02;99806.59;4896517;29;20040;-85
2021/07/06 09:15:59;;;;;;;9.48;8.50;;;;;;;25.96;52.41;99808.66;4890915;29;20101;-85
2021/07/06 09:18:31;;;;;;;10.88;9.63;;;;;;;25.98;52.77;99803.94;4893172;29;20052;-86
2021/07/06 09:21:04;;;;;;;13.25;11.73;;;;;;;25.70;53.35;99809.09;4892044;29;20064;-84
2021/07/06 09:23:38;;;;;;;11.35;8.80;;;;;;;26.14;53.21;99803.72;4894401;29;20420;-84
2021/07/06 09:26:10;;;;;;;11.55;9.98;;;;;;;25.97;52.40;99803.13;4893191;29;20104;-85
2021/07/06 09:28:40;;;;;;;11.05;9.10;;;;;;;26.07;52.52;99809.00;4894657;29;20083;-86
2021/07/06 09:31:20;;;;;;;12.77;10.38;;;;;;;26.16;52.61;99807.06;4896221;29;20735;-85
2021/07/06 09:34:10;;;;;;;11.60;9.40;;;;;;;26.54;52.22;99804.19;4894571;29;20452;-84
2021/07/06 09:36:50;;;;;;;12.57;10.07;;;;;;;26.75;51.09;99811.38;4893466;29;20502;-84
2021/07/06 09:39:24;;;;;;;12.63;9.68;;;;;;;26.44;50.88;99809.03;4890792;29;20548;-85
2021/07/06 09:41:57;;;;;;;10.32;9.32;;;;;;;26.51;51.23;99792.03;4895135;29;20496;-83
2021/07/06 09:44:41;;;;;;;12.93;9.15;;;;;;;26.60;50.35;99792.72;4895922;29;20092;-82
2021/07/06 09:47:09;;;;;;;9.95;8.93;;;;;;;26.26;51.06;99793.38;4895899;29;20040;-82
2021/07/06 09:49:41;;;;;;;12.45;7.95;;;;;;;26.77;49.77;99795.97;4895095;29;20104;-83
2021/07/06 09:52:15;;;;;;;14.88;8.52;;;;;;;26.85;49.57;99796.66;4895816;29;20795;-85
2021/07/06 09:54:46;;;;;;;;;;;;;;;26.45;49.54;99795.47;4894358;29;20048;-84
2021/07/06 09:57:21;;;;;;;14.52;8.13;;;;;;;26.93;49.43;99786.84;4895414;29;20001;-84
2021/07/06 10:00:14;;;;;;;8.57;5.97;;;;;;;26.98;49.98;99784.41;4894953;29;20385;-84
2021/07/06 10:02:44;;;;;;;8.23;7.43;;;;;;;26.91;48.59;99784.38;4893167;29;20554;-84
2021/07/06 10:05:20;;;;;;;10.00;8.63;;;;;;;27.04;49.14;99791.66;4893498;29;20052;-82
2021/07/06 10:07:47;;;;;;;7.70;6.72;;;;;;;26.85;48.42;99794.00;4894959;29;20076;-83
2021/07/06 10:10:15;;;;;;;6.78;6.00;;;;;;;27.08;47.15;99782.25;4895747;29;20070;-82
2021/07/06 10:12:45;;;;;;;11.98;6.05;;;;;;;27.27;47.04;99781.56;4895488;29;20586;-85
2021/07/06 10:15:15;;;;;;;8.95;5.60;;;;;;;27.31;46.58;99769.44;4895819;29;20048;-82
2021/07/06 10:17:47;;;;;;;8.00;4.88;;;;;;;27.39;46.22;99781.84;4892027;29;20453;-84
2021/07/06 10:20:20;;;;;;;5.80;5.07;;;;;;;27.49;46.18;99774.28;4896851;29;20128;-85
2021/07/06 10:23:01;;;;;;;5.00;4.20;;;;;;;27.60;46.66;99778.25;4896248;29;20056;-84
2021/07/06 10:25:31;;;;;;;8.95;6.78;;;;;;;27.57;46.14;99773.28;4896998;29;20056;-84
2021/07/06 10:28:01;;;;;;;12.02;9.00;;;;;;;27.18;47.06;99769.38;4896418;29;20051;-84
2021/07/06 10:30:41;;;;;;;8.55;6.85;;;;;;;27.64;46.12;99771.47;4895005;29;20052;-83
2021/07/06 10:33:28;;;;;;;9.85;6.55;;;;;;;27.68;46.19;99772.72;4892923;29;20052;-88
2021/07/06 10:35:56;;;;;;;6.15;5.65;;;;;;;27.75;45.41;99772.78;4893723;29;20049;-87
2021/07/06 10:38:29;;;;;;;6.20;5.18;;;;;;;27.82;45.67;99770.97;4895110;29;20100;-85
2021/07/06 10:40:58;;;;;;;11.87;6.23;;;;;;;27.95;44.53;99771.00;4894999;29;20045;-82
2021/07/06 10:43:40;;;;;;;10.93;8.02;;;;;;;27.85;46.11;99763.34;4894894;29;20503;-80
2021/07/06 10:46:32;;;;;;;10.45;7.60;;;;;;;28.16;45.59;99762.81;4894493;29;20100;-84
2021/07/06 10:49:31;;;;;;;12.07;7.82;;;;;;;28.04;45.77;99763.63;4892150;29;20440;-83
2021/07/06 10:52:01;;;;;;;12.25;8.80;;;;;;;28.05;46.12;99770.63;4896083;29;20132;-84
2021/07/06 10:54:30;;;;;;;8.90;4.50;;;;;;;27.96;46.16;99764.63;4893571;29;20071;-83
2021/07/06 10:57:06;;;;;;;8.85;5.47;;;;;;;28.06;45.47;99765.06;4896074;29;20048;-83
2021/07/06 10:59:35;;;;;;;9.88;7.38;;;;;;;28.16;45.42;99762.81;4896773;29;20388;-85
2021/07/06 11:02:13;;;;;;;12.55;7.03;;;;;;;28.53;44.91;99771.38;4893321;29;20088;-85
2021/07/06 11:04:46;;;;;;;8.73;6.90;;;;;;;28.22;45.10;99763.88;4894994;29;20097;-82
2021/07/06 11:07:15;;;;;;;10.60;5.53;;;;;;;28.19;44.89;99765.09;4895506;29;20575;-83
2021/07/06 11:09:42;;;;;;;4.75;4.25;;;;;;;27.93;45.39;99762.34;4895787;29;20076;-81
2021/07/06 11:12:25;;;;;;;9.88;8.93;;;;;;;28.22;44.78;99761.19;4895276;29;20075;-81
2021/07/06 11:14:58;;;;;;;8.13;5.57;;;;;;;28.52;44.52;99766.22;4893573;29;20041;-82
2021/07/06 11:17:32;;;;;;;6.97;6.25;;;;;;;28.45;44.62;99758.19;4895497;29;20053;-82
2021/07/06 11:20:17;;;;;;;8.60;7.15;;;;;;;28.93;43.15;99755.31;4894849;29;20045;-82
2021/07/06 11:22:55;;;;;;;8.90;7.13;;;;;;;28.54;43.90;99756.94;4896042;29;20104;-86
2021/07/06 11:25:32;;;;;;;11.65;7.00;;;;;;;28.89;43.44;99751.38;4893212;29;20041;-83
2021/07/06 11:27:59;;;;;;;7.22;5.63;;;;;;;28.44;44.02;99751.16;4894722;29;20589;-84
2021/07/06 11:30:30;;;;;;;6.20;4.72;;;;;;;28.23;45.14;99748.59;4894756;29;20040;-82
2021/07/06 11:33:16;;;;;;;14.50;6.28;;;;;;;29.26;43.04;99741.03;4894967;29;20136;-84
2021/07/06 11:35:50;;;;;;;12.05;7.90;;;;;;;28.81;44.05;99743.53;4893585;29;20048;-84
2021/07/06 11:38:22;;;;;;;13.02;8.32;;;;;;;28.59;44.34;99741.06;4895018;29;20519;-85
2021/07/06 11:40:54;;;;;;;6.85;5.90;;;;;;;28.60;44.50;99737.34;4892236;29;20088;-85